createdAt,value
2024-02-29T00:01:38.100Z,101124.00
2024-02-29T00:04:08.752Z,101122.00
2024-02-29T00:06:39.988Z,101116.60
2024-02-29T00:09:10.524Z,101116.80
2024-02-29T00:11:41.350Z,101118.40
2024-02-29T00:14:12.295Z,101118.00
2024-02-29T00:16:44.141Z,101112.60
2024-02-29T00:19:15.324Z,101111.60
2024-02-29T00:21:46.784Z,101119.40
2024-02-29T00:24:17.860Z,101110.40
2024-02-29T00:26:49.439Z,101114.20
2024-02-29T00:29:20.014Z,101116.00
2024-02-29T00:31:50.984Z,101114.60
2024-02-29T00:34:21.753Z,101111.40
2024-02-29T00:36:52.616Z,101106.80
2024-02-29T00:39:23.265Z,101107.40
2024-02-29T00:41:54.137Z,101104.40
2024-02-29T00:44:24.840Z,101107.80
2024-02-29T00:46:55.387Z,101107.20
2024-02-29T00:49:26.121Z,101106.40
2024-02-29T00:51:56.892Z,101094.60
2024-02-29T00:54:27.557Z,101092.20
2024-02-29T00:56:58.331Z,101098.20
2024-02-29T00:59:28.920Z,101096.20
2024-02-29T01:01:59.668Z,101094.80
2024-02-29T01:04:30.392Z,101095.60
2024-02-29T01:07:01.068Z,101100.60
2024-02-29T01:09:31.646Z,101091.80
2024-02-29T01:12:02.202Z,101096.20
2024-02-29T01:14:32.818Z,101094.00
2024-02-29T01:17:03.576Z,101092.40
2024-02-29T01:19:34.465Z,101086.20
2024-02-29T01:22:05.244Z,101089.00
2024-02-29T01:24:36.337Z,101089.60
2024-02-29T01:27:07.806Z,101073.80
2024-02-29T01:29:39.978Z,101077.40
2024-02-29T01:32:18.629Z,101074.80
2024-02-29T01:34:53.427Z,101077.80
2024-02-29T01:37:24.041Z,101074.80
2024-02-29T01:39:54.593Z,101069.40
2024-02-29T01:42:25.155Z,101069.00
2024-02-29T01:44:58.714Z,101067.80
2024-02-29T01:47:29.926Z,101070.80
2024-02-29T01:50:03.570Z,101076.00
2024-02-29T01:52:38.282Z,101081.40
2024-02-29T01:55:11.178Z,101081.20
2024-02-29T01:57:42.492Z,101085.00
2024-02-29T02:00:16.994Z,101076.60
2024-02-29T02:02:47.817Z,101068.40
2024-02-29T02:05:18.685Z,101065.60
2024-02-29T02:07:50.617Z,101066.20
2024-02-29T02:10:22.108Z,101065.20
2024-02-29T02:12:53.308Z,101065.40
2024-02-29T02:15:24.215Z,101064.80
2024-02-29T02:17:54.929Z,101068.20
2024-02-29T02:20:25.704Z,101066.80
2024-02-29T02:22:57.996Z,101056.40
2024-02-29T02:25:28.673Z,101052.40
2024-02-29T02:27:59.162Z,101048.20
2024-02-29T02:30:29.872Z,101050.60
2024-02-29T02:33:00.812Z,101041.40
2024-02-29T02:35:33.899Z,101037.20
2024-02-29T02:38:05.501Z,101035.80
2024-02-29T02:40:36.370Z,101032.60
2024-02-29T02:43:07.385Z,101032.80
2024-02-29T02:45:38.192Z,101040.00
2024-02-29T02:48:10.469Z,101034.80
2024-02-29T02:50:41.166Z,101032.40
2024-02-29T02:53:11.771Z,101026.40
2024-02-29T02:55:42.552Z,101023.00
2024-02-29T02:58:13.473Z,101021.40
2024-02-29T03:00:44.483Z,101023.80
2024-02-29T03:03:15.353Z,101021.40
2024-02-29T03:05:46.449Z,101020.60
2024-02-29T03:08:17.048Z,101021.80
2024-02-29T03:10:47.663Z,101021.00
2024-02-29T03:13:18.324Z,101018.00
2024-02-29T03:15:48.976Z,101017.80
2024-02-29T03:18:19.521Z,101021.00
2024-02-29T03:20:50.393Z,101019.60
2024-02-29T03:23:21.063Z,101011.00
2024-02-29T03:25:51.859Z,101006.20
2024-02-29T03:28:23.073Z,101011.40
2024-02-29T03:30:55.756Z,101011.20
2024-02-29T03:33:26.285Z,101012.20
2024-02-29T03:35:56.827Z,101012.20
2024-02-29T03:38:27.901Z,101008.20
2024-02-29T03:40:59.318Z,101010.60
2024-02-29T03:43:30.747Z,101006.00
2024-02-29T03:46:01.563Z,101000.00
2024-02-29T03:48:32.304Z,100999.00
2024-02-29T03:51:03.093Z,100993.40
2024-02-29T03:53:33.796Z,100993.40
2024-02-29T03:56:04.960Z,100994.00
2024-02-29T03:58:35.954Z,100996.00
2024-02-29T04:01:11.544Z,100991.60
2024-02-29T04:03:42.878Z,100990.20
2024-02-29T04:06:13.416Z,100988.60
2024-02-29T04:08:44.184Z,100987.80
2024-02-29T04:11:14.959Z,100992.20
2024-02-29T04:13:45.722Z,100987.20
2024-02-29T04:16:17.712Z,100980.40
2024-02-29T04:18:48.355Z,100982.60
2024-02-29T04:21:19.280Z,100981.60
2024-02-29T04:23:49.896Z,100981.60
2024-02-29T04:26:20.739Z,100979.00
2024-02-29T04:28:51.862Z,100981.00
2024-02-29T04:31:22.747Z,100971.00
2024-02-29T04:33:53.487Z,100973.20
2024-02-29T04:36:24.170Z,100968.40
2024-02-29T04:38:54.906Z,100973.40
2024-02-29T04:41:25.455Z,100977.00
2024-02-29T04:43:56.477Z,100977.20
2024-02-29T04:46:27.350Z,100971.00
2024-02-29T04:48:58.208Z,100970.00
2024-02-29T04:51:28.804Z,100967.60
2024-02-29T04:53:59.822Z,100964.00
2024-02-29T04:56:32.491Z,100966.20
2024-02-29T04:59:04.989Z,100962.80
2024-02-29T05:01:35.774Z,100962.40
2024-02-29T05:04:06.574Z,100963.60
2024-02-29T05:06:37.292Z,100966.60
2024-02-29T05:09:07.924Z,100961.60
2024-02-29T05:11:39.889Z,100962.00
2024-02-29T05:14:10.832Z,100962.60
2024-02-29T05:16:41.545Z,100956.80
2024-02-29T05:19:12.832Z,100959.60
2024-02-29T05:21:45.597Z,100962.80
2024-02-29T05:24:16.321Z,100962.60
2024-02-29T05:26:48.024Z,100960.20
2024-02-29T05:29:18.689Z,100961.00
2024-02-29T05:31:53.295Z,100961.40
2024-02-29T05:34:24.415Z,100962.40
2024-02-29T05:36:55.250Z,100962.40
2024-02-29T05:39:26.019Z,100956.40
2024-02-29T05:41:57.962Z,100957.80
2024-02-29T05:44:30.175Z,100962.80
2024-02-29T05:47:01.236Z,100961.20
2024-02-29T05:49:32.172Z,100959.40
2024-02-29T05:52:03.128Z,100956.80
2024-02-29T05:54:34.057Z,100957.60
2024-02-29T05:57:07.270Z,100957.80
2024-02-29T05:59:38.022Z,100957.60
2024-02-29T06:02:10.873Z,100961.20
2024-02-29T06:04:41.725Z,100960.40
2024-02-29T06:07:12.516Z,100961.00
2024-02-29T06:09:44.186Z,100958.20
2024-02-29T06:12:15.616Z,100964.80
2024-02-29T06:14:47.239Z,100966.60
2024-02-29T06:17:17.958Z,100959.00
2024-02-29T06:19:49.649Z,100960.40
2024-02-29T06:22:23.252Z,100964.40
2024-02-29T06:24:54.062Z,100963.60
2024-02-29T06:27:25.563Z,100961.60
2024-02-29T06:29:55.988Z,100963.40
2024-02-29T06:32:26.467Z,100967.60
2024-02-29T06:34:57.052Z,100966.80
2024-02-29T06:37:27.821Z,100962.60
2024-02-29T06:39:58.892Z,100963.60
2024-02-29T06:42:29.331Z,100962.20
2024-02-29T06:45:00.282Z,100959.40
2024-02-29T06:47:31.657Z,100957.20
2024-02-29T06:50:03.401Z,100954.60
2024-02-29T06:52:33.863Z,100955.20
2024-02-29T06:55:07.516Z,100958.00
2024-02-29T06:57:39.174Z,100959.20
2024-02-29T07:00:13.563Z,100951.80
2024-02-29T07:02:44.169Z,100953.00
2024-02-29T07:05:15.164Z,100950.20
2024-02-29T07:07:46.260Z,100946.20
2024-02-29T07:10:17.377Z,100938.80
2024-02-29T07:12:48.405Z,100938.40
2024-02-29T07:15:19.421Z,100937.80
2024-02-29T07:17:50.635Z,100936.80
2024-02-29T07:20:21.704Z,100937.40
2024-02-29T07:22:53.167Z,100929.80
2024-02-29T07:25:23.902Z,100933.80
2024-02-29T07:27:55.454Z,100933.60
2024-02-29T07:30:27.592Z,100934.20
2024-02-29T07:32:59.079Z,100927.00
2024-02-29T07:35:31.691Z,100927.00
2024-02-29T07:38:04.013Z,100931.60
2024-02-29T07:40:34.870Z,100925.00
2024-02-29T07:43:06.657Z,100928.40
2024-02-29T07:45:37.541Z,100925.60
2024-02-29T07:48:09.310Z,100926.80
2024-02-29T07:50:40.394Z,100920.40
2024-02-29T07:53:11.176Z,100925.20
2024-02-29T07:55:42.110Z,100924.60
2024-02-29T07:58:13.012Z,100922.00
2024-02-29T08:00:43.876Z,100917.60
2024-02-29T08:03:14.970Z,100917.80
2024-02-29T08:05:47.209Z,100921.40
2024-02-29T08:08:18.206Z,100921.80
2024-02-29T08:10:49.007Z,100923.00
2024-02-29T08:13:21.375Z,100922.60
2024-02-29T08:15:52.466Z,100921.80
2024-02-29T08:18:23.213Z,100912.80
2024-02-29T08:20:53.896Z,100914.80
2024-02-29T08:23:24.797Z,100912.60
2024-02-29T08:25:55.310Z,100906.40
2024-02-29T08:28:25.893Z,100911.00
2024-02-29T08:30:57.033Z,100903.20
2024-02-29T08:33:27.621Z,100899.00
2024-02-29T08:35:58.419Z,100898.80
2024-02-29T08:38:29.061Z,100902.40
2024-02-29T08:41:00.042Z,100894.00
2024-02-29T08:43:30.605Z,100893.80
2024-02-29T08:46:01.171Z,100890.20
2024-02-29T08:48:31.912Z,100891.60
2024-02-29T08:51:02.904Z,100885.40
2024-02-29T08:53:33.449Z,100880.20
2024-02-29T08:56:04.508Z,100878.00
2024-02-29T08:58:35.022Z,100886.20
2024-02-29T09:01:05.934Z,100884.40
2024-02-29T09:03:36.572Z,100878.20
2024-02-29T09:06:07.733Z,100871.80
2024-02-29T09:08:38.472Z,100869.40
2024-02-29T09:11:09.100Z,100874.20
2024-02-29T09:13:39.637Z,100876.20
2024-02-29T09:16:10.908Z,100868.40
2024-02-29T09:18:41.669Z,100861.40
2024-02-29T09:21:12.227Z,100858.40
2024-02-29T09:23:42.845Z,100853.80
2024-02-29T09:26:17.354Z,100852.00
2024-02-29T09:28:48.589Z,100846.60
2024-02-29T09:31:20.546Z,100843.00
2024-02-29T09:33:54.188Z,100849.60
2024-02-29T09:36:25.486Z,100843.00
2024-02-29T09:38:56.060Z,100844.60
2024-02-29T09:41:41.392Z,100836.60
2024-02-29T09:44:21.345Z,100835.00
2024-02-29T09:46:52.835Z,100831.80
2024-02-29T09:49:23.350Z,100829.60
2024-02-29T09:51:54.284Z,100831.00
2024-02-29T09:54:26.944Z,100833.80
2024-02-29T09:56:57.954Z,100829.00
2024-02-29T09:59:31.467Z,100826.60
2024-02-29T10:02:04.822Z,100827.40
2024-02-29T10:04:38.434Z,100828.60
2024-02-29T10:07:10.110Z,100820.20
2024-02-29T10:09:41.082Z,100827.20
2024-02-29T10:12:17.923Z,100817.00
2024-02-29T10:14:58.295Z,100818.40
2024-02-29T10:17:32.712Z,100812.40
2024-02-29T10:20:04.529Z,100812.80
2024-02-29T10:22:34.825Z,100808.80
2024-02-29T10:25:10.868Z,100804.20
2024-02-29T10:27:41.772Z,100806.80
2024-02-29T10:30:16.107Z,100801.60
2024-02-29T10:32:48.204Z,100794.80
2024-02-29T10:35:23.447Z,100795.40
2024-02-29T10:37:56.294Z,100789.20
2024-02-29T10:40:27.227Z,100777.40
2024-02-29T10:43:01.648Z,100776.40
2024-02-29T10:45:35.598Z,100773.40
2024-02-29T10:48:16.875Z,100768.00
2024-02-29T10:51:04.244Z,100764.60
2024-02-29T10:53:48.872Z,100753.60
2024-02-29T10:56:24.675Z,100743.40
2024-02-29T10:59:04.120Z,100744.00
2024-02-29T11:01:36.780Z,100740.80
2024-02-29T11:04:08.322Z,100742.00
2024-02-29T11:06:43.300Z,100737.20
2024-02-29T11:09:15.915Z,100731.20
2024-02-29T11:11:47.900Z,100725.60
2024-02-29T11:14:19.708Z,100723.20
2024-02-29T11:16:50.176Z,100723.60
2024-02-29T11:19:21.072Z,100720.40
2024-02-29T11:21:51.742Z,100719.80
2024-02-29T11:24:23.922Z,100715.40
2024-02-29T11:26:58.370Z,100702.40
2024-02-29T11:29:32.398Z,100703.20
2024-02-29T11:32:05.958Z,100697.80
2024-02-29T11:34:38.061Z,100692.00
2024-02-29T11:37:10.187Z,100687.60
2024-02-29T11:39:41.567Z,100683.40
2024-02-29T11:42:14.702Z,100676.80
2024-02-29T11:44:55.498Z,100678.40
2024-02-29T11:47:28.359Z,100676.40
2024-02-29T11:50:02.596Z,100672.40
2024-02-29T11:52:33.387Z,100667.20
2024-02-29T11:55:04.608Z,100662.60
2024-02-29T11:57:36.790Z,100654.80
2024-02-29T12:00:10.677Z,100656.80
2024-02-29T12:02:44.604Z,100652.60
2024-02-29T12:05:17.799Z,100648.20
2024-02-29T12:07:49.834Z,100645.80
2024-02-29T12:10:21.797Z,100637.80
2024-02-29T12:12:52.297Z,100631.20
2024-02-29T12:15:22.888Z,100630.80
2024-02-29T12:17:53.828Z,100627.00
2024-02-29T12:20:25.987Z,100624.20
2024-02-29T12:23:01.029Z,100622.80
2024-02-29T12:25:31.586Z,100617.00
2024-02-29T12:28:03.334Z,100616.20
2024-02-29T12:30:35.399Z,100619.80
2024-02-29T12:33:06.899Z,100617.40
2024-02-29T12:35:37.300Z,100618.00
2024-02-29T12:38:14.071Z,100612.00
2024-02-29T12:40:46.425Z,100606.40
2024-02-29T12:43:17.947Z,100604.00
2024-02-29T12:45:49.090Z,100604.80
2024-02-29T12:48:19.601Z,100603.60
2024-02-29T12:50:51.160Z,100596.20
2024-02-29T12:53:21.755Z,100593.20
2024-02-29T12:55:53.047Z,100585.40
2024-02-29T12:58:23.762Z,100583.20
2024-02-29T13:00:54.468Z,100571.40
2024-02-29T13:03:24.988Z,100573.20
2024-02-29T13:05:56.429Z,100574.00
2024-02-29T13:08:27.029Z,100574.40
2024-02-29T13:10:57.281Z,100568.80
2024-02-29T13:13:27.555Z,100565.40
2024-02-29T13:15:58.529Z,100557.60
2024-02-29T13:18:31.192Z,100558.00
2024-02-29T13:43:00.235Z,100538.40
2024-02-29T13:45:38.550Z,100542.40
2024-02-29T13:48:10.023Z,100544.20
2024-02-29T13:50:42.741Z,100541.00
2024-02-29T13:53:13.026Z,100536.00
2024-02-29T13:55:45.834Z,100536.20
2024-02-29T13:58:17.965Z,100538.00
2024-02-29T14:00:48.525Z,100531.80
2024-02-29T14:03:19.171Z,100530.40
2024-02-29T14:05:50.104Z,100525.80
2024-02-29T14:08:20.844Z,100526.20
2024-02-29T14:10:51.229Z,100517.20
2024-02-29T14:13:21.785Z,100512.80
2024-02-29T14:15:52.271Z,100505.60
2024-02-29T14:18:22.793Z,100508.60
2024-02-29T14:20:53.286Z,100499.40
2024-02-29T14:23:24.109Z,100496.80
2024-02-29T14:25:54.699Z,100491.80
2024-02-29T14:28:25.692Z,100491.40
2024-02-29T14:30:56.364Z,100485.20
2024-02-29T14:33:26.770Z,100480.80
2024-02-29T14:35:58.684Z,100484.20
2024-02-29T14:38:29.391Z,100480.60
2024-02-29T14:40:59.736Z,100468.80
2024-02-29T14:43:30.328Z,100470.60
2024-02-29T14:46:02.224Z,100461.20
2024-02-29T14:48:35.118Z,100459.40
2024-02-29T14:51:05.836Z,100457.80
2024-02-29T14:53:36.135Z,100455.40
2024-02-29T14:56:07.338Z,100451.20
2024-02-29T14:58:37.990Z,100449.40
2024-02-29T15:01:08.449Z,100441.00
2024-02-29T15:03:39.326Z,100430.60
2024-02-29T15:06:10.010Z,100429.20
2024-02-29T15:08:40.947Z,100427.20
2024-02-29T15:11:11.531Z,100429.80
2024-02-29T15:13:41.837Z,100416.40
2024-02-29T15:16:13.281Z,100416.80
2024-02-29T15:18:43.838Z,100417.60
2024-02-29T15:21:14.189Z,100414.60
2024-02-29T15:23:45.269Z,100412.20
2024-02-29T15:26:16.149Z,100411.60
2024-02-29T15:28:49.234Z,100411.20
2024-02-29T15:31:20.248Z,100407.40
2024-02-29T15:33:50.860Z,100409.20
2024-02-29T15:36:21.499Z,100415.60
2024-02-29T15:38:52.098Z,100411.40
2024-02-29T15:41:22.716Z,100416.60
2024-02-29T15:43:53.626Z,100414.60
2024-02-29T15:46:24.382Z,100420.60
2024-02-29T15:48:55.363Z,100422.40
2024-02-29T15:51:25.909Z,100416.20
2024-02-29T15:53:56.283Z,100417.40
2024-02-29T15:56:26.908Z,100415.60
2024-02-29T15:58:57.847Z,100406.40
2024-02-29T16:01:29.204Z,100404.80
2024-02-29T16:03:59.991Z,100404.80
2024-02-29T16:06:30.357Z,100401.60
2024-02-29T16:09:00.926Z,100404.80
2024-02-29T16:11:31.496Z,100404.20
2024-02-29T16:14:01.964Z,100400.20
2024-02-29T16:16:32.544Z,100400.00
2024-02-29T16:19:03.780Z,100403.40
2024-02-29T16:21:34.191Z,100393.60
2024-02-29T16:24:05.726Z,100390.60
2024-02-29T16:26:36.586Z,100391.00
2024-02-29T16:29:07.109Z,100387.60
2024-02-29T16:31:37.540Z,100385.60
2024-02-29T16:34:08.601Z,100386.20
2024-02-29T16:36:39.173Z,100389.00
2024-02-29T16:39:09.784Z,100385.00
2024-02-29T16:41:40.702Z,100376.80
2024-02-29T16:44:12.153Z,100382.40
2024-02-29T16:46:44.891Z,100382.60
2024-02-29T16:49:15.460Z,100383.60
2024-02-29T16:51:45.833Z,100378.80
2024-02-29T16:54:16.380Z,100377.20
2024-02-29T16:56:47.132Z,100372.60
2024-02-29T16:59:17.522Z,100373.20
2024-02-29T17:01:47.938Z,100368.00
2024-02-29T17:04:18.873Z,100370.40
2024-02-29T17:06:49.699Z,100367.20
2024-02-29T17:09:20.410Z,100363.00
2024-02-29T17:11:51.164Z,100368.20
2024-02-29T17:14:21.482Z,100364.20
2024-02-29T17:16:52.594Z,100364.00
2024-02-29T17:19:23.470Z,100363.00
2024-02-29T17:21:54.161Z,100357.00
2024-02-29T17:24:25.416Z,100355.20
2024-02-29T17:26:56.161Z,100353.40
2024-02-29T17:29:27.168Z,100358.80
2024-02-29T17:31:57.837Z,100347.20
2024-02-29T17:34:28.438Z,100347.00
2024-02-29T17:36:59.402Z,100345.00
2024-02-29T17:39:30.042Z,100345.40
2024-02-29T17:42:00.732Z,100346.80
2024-02-29T17:44:31.582Z,100349.00
2024-02-29T17:47:02.269Z,100342.40
2024-02-29T17:49:33.184Z,100341.60
2024-02-29T17:52:04.598Z,100333.80
2024-02-29T17:54:35.499Z,100336.80
2024-02-29T17:57:07.467Z,100333.20
2024-02-29T17:59:39.560Z,100326.00
2024-02-29T18:02:11.032Z,100327.60
2024-02-29T18:04:41.946Z,100334.20
2024-02-29T18:07:13.211Z,100331.20
2024-02-29T18:09:44.146Z,100327.80
2024-02-29T18:12:15.049Z,100322.00
2024-02-29T18:14:45.684Z,100319.80
2024-02-29T18:17:16.769Z,100315.80
2024-02-29T18:19:47.618Z,100313.20
2024-02-29T18:22:18.885Z,100311.00
2024-02-29T18:24:50.065Z,100310.20
2024-02-29T18:27:20.827Z,100303.00
2024-02-29T18:29:51.649Z,100306.60
2024-02-29T18:32:22.318Z,100303.80
2024-02-29T18:34:53.079Z,100305.00
2024-02-29T18:37:25.419Z,100303.20
2024-02-29T18:39:56.668Z,100301.80
2024-02-29T18:42:29.084Z,100294.40
2024-02-29T18:45:00.996Z,100296.00
2024-02-29T18:47:31.807Z,100297.60
2024-02-29T18:50:02.419Z,100292.80
2024-02-29T18:52:33.113Z,100289.40
2024-02-29T18:55:04.384Z,100291.00
2024-02-29T18:57:34.764Z,100287.40
2024-02-29T19:00:07.286Z,100285.80
2024-02-29T19:02:38.095Z,100283.20
2024-02-29T19:05:10.662Z,100285.20
2024-02-29T19:07:41.353Z,100286.00
2024-02-29T19:10:14.774Z,100282.20
2024-02-29T19:12:45.394Z,100280.80
2024-02-29T19:15:16.407Z,100275.40
2024-02-29T19:17:47.003Z,100274.60
2024-02-29T19:20:17.838Z,100271.80
2024-02-29T19:22:51.786Z,100272.20
2024-02-29T19:25:22.782Z,100265.00
2024-02-29T19:27:53.393Z,100265.80
2024-02-29T19:30:26.146Z,100258.40
2024-02-29T19:32:56.805Z,100256.60
2024-02-29T19:35:28.550Z,100259.00
2024-02-29T19:37:59.000Z,100257.80
2024-02-29T19:40:29.887Z,100255.80
2024-02-29T19:43:00.723Z,100253.20
2024-02-29T19:45:31.471Z,100244.40
2024-02-29T19:48:04.618Z,100245.40
2024-02-29T19:50:35.711Z,100240.80
2024-02-29T19:53:07.032Z,100246.80
2024-02-29T19:55:40.852Z,100243.40
2024-02-29T19:58:13.267Z,100235.00
2024-02-29T20:00:47.615Z,100235.60
2024-02-29T20:03:18.881Z,100227.60
2024-02-29T20:05:49.508Z,100230.00
2024-02-29T20:08:20.940Z,100230.20
2024-02-29T20:10:51.879Z,100226.40
2024-02-29T20:13:23.221Z,100225.00
2024-02-29T20:15:54.077Z,100222.80
2024-02-29T20:18:27.712Z,100217.60
2024-02-29T20:20:58.717Z,100221.40
2024-02-29T20:23:29.491Z,100216.20
2024-02-29T20:26:01.045Z,100219.00
2024-02-29T20:28:32.102Z,100218.40
2024-02-29T20:31:05.323Z,100216.60
2024-02-29T20:33:36.538Z,100216.40
2024-02-29T20:36:10.316Z,100216.60
2024-02-29T20:38:42.079Z,100212.80
2024-02-29T20:41:13.250Z,100209.40
2024-02-29T20:43:44.533Z,100202.40
2024-02-29T20:46:17.220Z,100203.40
2024-02-29T20:48:48.197Z,100203.60
2024-02-29T20:51:19.017Z,100195.00
2024-02-29T20:53:49.940Z,100187.40
2024-02-29T20:56:20.700Z,100189.40
2024-02-29T20:58:51.637Z,100192.20
2024-02-29T21:01:22.503Z,100180.80
2024-02-29T21:03:53.006Z,100188.80
2024-02-29T21:06:23.882Z,100187.40
2024-02-29T21:08:55.493Z,100184.40
2024-02-29T21:11:26.276Z,100180.20
2024-02-29T21:13:56.953Z,100182.60
2024-02-29T21:16:27.301Z,100177.40
2024-02-29T21:18:58.470Z,100175.80
2024-02-29T21:21:29.938Z,100177.60
2024-02-29T21:24:00.747Z,100169.80
2024-02-29T21:26:31.536Z,100168.20
2024-02-29T21:29:03.522Z,100170.20
2024-02-29T21:31:34.646Z,100168.40
2024-02-29T21:34:08.817Z,100165.60
2024-02-29T21:36:39.705Z,100161.00
2024-02-29T21:39:11.015Z,100158.80
2024-02-29T21:41:41.811Z,100148.60
2024-02-29T21:44:12.822Z,100152.60
2024-02-29T21:46:43.476Z,100153.20
2024-02-29T21:49:14.392Z,100154.60
2024-02-29T21:51:45.184Z,100152.40
2024-02-29T21:54:17.083Z,100148.60
2024-02-29T21:56:48.050Z,100141.60
2024-02-29T21:59:19.763Z,100140.00
2024-02-29T22:01:50.988Z,100137.20
2024-02-29T22:04:21.525Z,100140.60
2024-02-29T22:06:52.517Z,100130.60
2024-02-29T22:09:24.365Z,100129.60
2024-02-29T22:11:56.362Z,100123.00
2024-02-29T22:14:27.161Z,100118.40
2024-02-29T22:16:58.139Z,100113.00
2024-02-29T22:19:28.980Z,100110.40
2024-02-29T22:22:01.225Z,100110.20
2024-02-29T22:24:31.947Z,100107.40
2024-02-29T22:27:02.768Z,100107.00
2024-02-29T22:29:33.431Z,100098.20
2024-02-29T22:32:05.401Z,100098.80
2024-02-29T22:34:36.598Z,100099.80
2024-02-29T22:37:08.074Z,100095.60
2024-02-29T22:39:43.232Z,100095.00
2024-02-29T22:42:14.048Z,100093.40
2024-02-29T22:44:44.497Z,100090.00
2024-02-29T22:47:15.437Z,100085.20
2024-02-29T22:49:45.888Z,100082.20
2024-02-29T22:52:16.593Z,100074.60
2024-02-29T22:54:47.193Z,100076.40
2024-02-29T22:57:17.772Z,100069.00
2024-02-29T22:59:48.361Z,100070.20
2024-02-29T23:02:19.085Z,100065.40
2024-02-29T23:04:49.776Z,100064.40
2024-02-29T23:07:20.436Z,100068.00
2024-02-29T23:09:51.645Z,100058.40
2024-02-29T23:12:22.330Z,100057.60
2024-02-29T23:14:52.860Z,100059.80
2024-02-29T23:17:23.447Z,100053.00
2024-02-29T23:19:56.242Z,100055.00
2024-02-29T23:22:27.039Z,100053.40
2024-02-29T23:24:57.760Z,100054.20
2024-02-29T23:27:28.438Z,100049.20
2024-02-29T23:29:58.862Z,100050.00
2024-02-29T23:32:29.064Z,100044.20
2024-02-29T23:34:59.307Z,100042.80
2024-02-29T23:37:29.681Z,100038.80
2024-02-29T23:40:00.594Z,100041.80
2024-02-29T23:42:31.154Z,100032.80
2024-02-29T23:45:02.355Z,100027.60
2024-02-29T23:47:32.638Z,100023.00
2024-02-29T23:50:03.256Z,100024.80
2024-02-29T23:52:33.562Z,100025.60
2024-02-29T23:55:05.407Z,100024.40
2024-02-29T23:57:36.113Z,100018.00
